createdAt,value
2023-04-27T00:02:06.780Z,96673.06
2023-04-27T00:04:34.982Z,96668.84
2023-04-27T00:07:02.930Z,96667.97
2023-04-27T00:09:30.793Z,96666.09
2023-04-27T00:11:58.548Z,96661.88
2023-04-27T00:14:28.682Z,96663.69
2023-04-27T00:16:56.883Z,96675.13
2023-04-27T00:19:26.102Z,96656.00
2023-04-27T00:21:54.279Z,96664.22
2023-04-27T00:24:22.239Z,96661.44
2023-04-27T00:26:50.050Z,96652.94
2023-04-27T00:29:17.953Z,96663.34
2023-04-27T00:31:46.175Z,96658.50
2023-04-27T00:34:14.055Z,96658.50
2023-04-27T00:36:43.264Z,96651.53
2023-04-27T00:39:11.284Z,96650.09
2023-04-27T00:41:39.576Z,96654.50
2023-04-27T00:44:07.452Z,96651.75
2023-04-27T00:46:36.252Z,96645.88
2023-04-27T00:49:04.221Z,96639.88
2023-04-27T00:51:32.242Z,96627.78
2023-04-27T00:54:02.819Z,96630.59
2023-04-27T00:56:31.881Z,96635.75
2023-04-27T00:58:59.805Z,96636.59
2023-04-27T01:01:27.899Z,96628.81
2023-04-27T01:03:56.079Z,96630.41
2023-04-27T01:06:24.120Z,96636.28
2023-04-27T01:08:51.913Z,96646.06
2023-04-27T01:11:21.637Z,96646.38
2023-04-27T01:13:49.490Z,96648.19
2023-04-27T01:16:18.682Z,96650.06
2023-04-27T01:18:47.400Z,96651.84
2023-04-27T01:21:15.547Z,96652.81
2023-04-27T01:23:44.876Z,96658.06
2023-04-27T01:26:16.218Z,96652.16
2023-04-27T01:28:44.238Z,96652.38
2023-04-27T01:31:12.506Z,96658.69
2023-04-27T01:33:41.297Z,96657.81
2023-04-27T01:36:10.380Z,96651.72
2023-04-27T01:38:38.312Z,96644.78
2023-04-27T01:41:09.333Z,96639.63
2023-04-27T01:43:38.122Z,96643.09
2023-04-27T01:46:07.765Z,96638.88
2023-04-27T01:48:36.396Z,96636.25
2023-04-27T01:51:04.805Z,96641.63
2023-04-27T01:53:32.683Z,96647.28
2023-04-27T01:56:00.824Z,96647.81
2023-04-27T01:58:30.202Z,96653.91
2023-04-27T02:00:58.325Z,96656.44
2023-04-27T02:03:26.339Z,96666.22
2023-04-27T02:05:54.361Z,96650.34
2023-04-27T02:08:22.340Z,96646.97
2023-04-27T02:10:50.175Z,96647.28
2023-04-27T02:13:18.658Z,96650.88
2023-04-27T02:15:48.097Z,96660.53
2023-04-27T02:18:17.413Z,96659.91
2023-04-27T02:20:45.579Z,96659.25
2023-04-27T02:23:13.361Z,96666.06
2023-04-27T02:25:46.746Z,96669.66
2023-04-27T02:28:15.058Z,96672.91
2023-04-27T02:30:43.661Z,96662.00
2023-04-27T02:33:15.153Z,96656.81
2023-04-27T02:35:43.078Z,96664.72
2023-04-27T02:38:11.273Z,96664.91
2023-04-27T02:40:39.576Z,96665.53
2023-04-27T02:43:08.283Z,96671.63
2023-04-27T02:45:38.345Z,96662.00
2023-04-27T02:48:07.678Z,96671.53
2023-04-27T02:50:41.571Z,96667.03
2023-04-27T02:53:09.516Z,96667.88
2023-04-27T02:55:37.412Z,96672.28
2023-04-27T02:58:05.494Z,96670.81
2023-04-27T03:00:34.204Z,96677.84
2023-04-27T03:03:02.279Z,96670.59
2023-04-27T03:05:31.821Z,96671.34
2023-04-27T03:08:01.404Z,96670.81
2023-04-27T03:10:29.571Z,96665.34
2023-04-27T03:12:57.446Z,96667.25
2023-04-27T03:15:25.272Z,96664.41
2023-04-27T03:17:53.599Z,96665.53
2023-04-27T03:20:22.843Z,96671.75
2023-04-27T03:22:50.687Z,96668.38
2023-04-27T03:25:22.373Z,96677.94
2023-04-27T03:27:50.872Z,96673.63
2023-04-27T03:30:18.779Z,96671.09
2023-04-27T03:32:47.888Z,96670.47
2023-04-27T03:35:15.977Z,96672.88
2023-04-27T03:37:45.910Z,96672.88
2023-04-27T03:40:15.484Z,96672.59
2023-04-27T03:42:44.683Z,96670.81
2023-04-27T03:45:13.075Z,96672.69
2023-04-27T03:47:41.265Z,96672.59
2023-04-27T03:50:10.047Z,96677.00
2023-04-27T03:52:37.880Z,96676.66
2023-04-27T03:55:07.672Z,96682.56
2023-04-27T03:57:35.726Z,96674.38
2023-04-27T04:00:11.400Z,96671.84
2023-04-27T04:02:40.786Z,96679.09
2023-04-27T04:05:09.959Z,96673.09
2023-04-27T04:07:37.897Z,96677.50
2023-04-27T04:10:06.971Z,96672.13
2023-04-27T04:12:34.991Z,96676.84
2023-04-27T04:15:03.560Z,96672.97
2023-04-27T04:17:34.140Z,96681.06
2023-04-27T04:20:04.436Z,96679.81
2023-04-27T04:22:32.281Z,96679.81
2023-04-27T04:25:01.365Z,96682.56
2023-04-27T04:27:29.274Z,96687.81
2023-04-27T04:29:57.267Z,96684.53
2023-04-27T04:32:25.282Z,96692.41
2023-04-27T04:34:54.741Z,96692.34
2023-04-27T04:37:24.050Z,96694.13
2023-04-27T04:39:52.640Z,96696.75
2023-04-27T04:42:20.742Z,96695.81
2023-04-27T04:44:48.811Z,96694.97
2023-04-27T04:47:17.664Z,96688.88
2023-04-27T04:49:47.184Z,96688.88
2023-04-27T04:52:16.721Z,96700.13
2023-04-27T04:54:44.628Z,96691.50
2023-04-27T04:57:12.492Z,96701.81
2023-04-27T04:59:41.229Z,96699.50
2023-04-27T05:02:09.093Z,96700.66
2023-04-27T05:04:36.959Z,96692.56
2023-04-27T05:07:06.632Z,96692.56
2023-04-27T05:09:35.890Z,96692.56
2023-04-27T05:12:04.042Z,96688.81
2023-04-27T05:14:31.931Z,96692.19
2023-04-27T05:16:59.758Z,96694.69
2023-04-27T05:19:30.112Z,96691.03
2023-04-27T05:21:58.771Z,96696.94
2023-04-27T05:24:27.209Z,96703.88
2023-04-27T05:26:56.489Z,96706.19
2023-04-27T05:29:24.520Z,96704.22
2023-04-27T05:31:52.397Z,96702.22
2023-04-27T05:34:20.756Z,96705.41
2023-04-27T05:36:48.639Z,96712.97
2023-04-27T05:39:16.600Z,96711.22
2023-04-27T05:41:44.553Z,96709.31
2023-04-27T05:44:14.055Z,96711.53
2023-04-27T05:46:41.847Z,96713.63
2023-04-27T05:49:09.707Z,96718.28
2023-04-27T05:51:38.407Z,96709.25
2023-04-27T05:54:06.512Z,96715.88
2023-04-27T05:56:35.110Z,96721.66
2023-04-27T05:59:03.497Z,96716.22
2023-04-27T06:01:32.806Z,96726.22
2023-04-27T06:04:01.717Z,96727.38
2023-04-27T06:06:33.207Z,96731.16
2023-04-27T06:09:01.202Z,96721.47
2023-04-27T06:11:29.196Z,96726.56
2023-04-27T06:13:57.085Z,96726.13
2023-04-27T06:16:25.100Z,96734.34
2023-04-27T06:18:54.462Z,96734.88
2023-04-27T06:21:22.294Z,96745.00
2023-04-27T06:23:50.333Z,96742.66
2023-04-27T06:26:18.149Z,96744.03
2023-04-27T06:28:46.790Z,96754.13
2023-04-27T06:31:15.189Z,96750.16
2023-04-27T06:33:43.104Z,96745.84
2023-04-27T06:36:12.476Z,96755.00
2023-04-27T06:38:40.488Z,96754.78
2023-04-27T06:41:08.357Z,96753.94
2023-04-27T06:43:36.250Z,96751.19
2023-04-27T06:46:04.589Z,96756.03
2023-04-27T06:48:32.531Z,96752.22
2023-04-27T06:51:00.731Z,96747.97
2023-04-27T06:53:30.003Z,96752.09
2023-04-27T06:55:57.968Z,96754.50
2023-04-27T06:58:27.045Z,96758.03
2023-04-27T07:00:55.098Z,96755.22
2023-04-27T07:03:23.078Z,96752.00
2023-04-27T07:05:53.105Z,96753.34
2023-04-27T07:08:21.012Z,96756.38
2023-04-27T07:10:50.297Z,96757.53
2023-04-27T07:13:18.162Z,96758.75
2023-04-27T07:15:46.059Z,96751.84
2023-04-27T07:18:13.954Z,96758.97
2023-04-27T07:20:42.599Z,96753.34
2023-04-27T07:23:10.739Z,96751.94
2023-04-27T07:25:40.328Z,96758.19
2023-04-27T07:28:09.970Z,96755.94
2023-04-27T07:30:38.682Z,96751.50
2023-04-27T07:33:07.259Z,96755.25
2023-04-27T07:35:35.514Z,96752.00
2023-04-27T07:38:03.878Z,96742.91
2023-04-27T07:40:32.860Z,96750.38
2023-04-27T07:43:01.135Z,96753.88
2023-04-27T07:45:32.968Z,96746.53
2023-04-27T07:48:02.069Z,96748.84
2023-04-27T07:50:31.000Z,96747.31
2023-04-27T07:52:59.994Z,96744.06
2023-04-27T07:55:28.503Z,96743.22
2023-04-27T07:57:57.404Z,96735.41
2023-04-27T08:00:26.389Z,96741.63
2023-04-27T08:02:56.708Z,96736.59
2023-04-27T08:05:25.297Z,96741.63
2023-04-27T08:07:54.609Z,96738.00
2023-04-27T08:10:23.466Z,96735.34
2023-04-27T08:12:51.621Z,96737.53
2023-04-27T08:15:19.649Z,96733.91
2023-04-27T08:17:49.156Z,96733.91
2023-04-27T08:20:18.399Z,96729.06
2023-04-27T08:22:46.208Z,96729.50
2023-04-27T08:25:14.073Z,96734.78
2023-04-27T08:27:42.150Z,96723.34
2023-04-27T08:30:10.916Z,96715.63
2023-04-27T08:32:39.100Z,96721.66
2023-04-27T08:35:07.797Z,96715.13
2023-04-27T08:37:37.056Z,96709.78
2023-04-27T08:40:07.844Z,96711.50
2023-04-27T08:42:35.877Z,96714.38
2023-04-27T08:45:04.653Z,96717.34
2023-04-27T08:47:42.863Z,96718.56
2023-04-27T08:50:12.569Z,96714.44
2023-04-27T08:52:44.679Z,96712.19
2023-04-27T08:55:14.978Z,96715.69
2023-04-27T08:57:56.184Z,96712.31
2023-04-27T09:00:25.843Z,96714.97
2023-04-27T09:02:53.950Z,96710.44
2023-04-27T09:05:23.637Z,96710.19
2023-04-27T09:08:00.809Z,96706.72
2023-04-27T09:10:30.032Z,96711.13
2023-04-27T09:13:01.957Z,96714.81
2023-04-27T09:15:30.094Z,96716.97
2023-04-27T09:17:58.840Z,96716.19
2023-04-27T09:20:28.739Z,96719.25
2023-04-27T09:22:58.289Z,96720.22
2023-04-27T09:25:29.982Z,96720.53
2023-04-27T09:27:58.743Z,96722.50
2023-04-27T09:30:27.362Z,96713.50
2023-04-27T09:32:57.173Z,96712.63
2023-04-27T09:35:27.073Z,96710.47
2023-04-27T09:37:55.593Z,96713.50
2023-04-27T09:40:26.673Z,96707.63
2023-04-27T09:42:57.841Z,96710.03
2023-04-27T09:45:26.269Z,96709.09
2023-04-27T09:47:54.330Z,96710.72
2023-04-27T09:50:22.843Z,96704.91
2023-04-27T09:52:51.245Z,96713.16
2023-04-27T09:55:25.634Z,96710.63
2023-04-27T09:58:10.675Z,96711.31
2023-04-27T10:00:54.106Z,96710.22
2023-04-27T10:03:30.885Z,96699.19
2023-04-27T10:06:46.723Z,96695.56
2023-04-27T10:09:15.057Z,96711.09
2023-04-27T10:11:45.041Z,96708.13
2023-04-27T10:14:18.429Z,96716.09
2023-04-27T10:16:47.630Z,96713.69
2023-04-27T10:19:15.952Z,96705.31
2023-04-27T10:21:59.020Z,96706.03
2023-04-27T10:24:36.629Z,96709.75
2023-04-27T10:27:09.057Z,96708.44
2023-04-27T10:29:40.237Z,96705.91
2023-04-27T10:32:10.412Z,96703.25
2023-04-27T10:34:38.933Z,96703.84
2023-04-27T10:37:08.291Z,96698.28
2023-04-27T10:39:48.049Z,96695.34
2023-04-27T10:42:28.622Z,96692.72
2023-04-27T10:44:59.649Z,96692.13
2023-04-27T10:47:38.314Z,96692.84
2023-04-27T10:50:07.521Z,96686.53
2023-04-27T10:52:35.677Z,96689.06
2023-04-27T10:55:14.892Z,96692.44
2023-04-27T10:57:51.061Z,96697.72
2023-04-27T11:00:26.915Z,96697.31
2023-04-27T11:02:55.729Z,96693.53
2023-04-27T11:12:25.421Z,96682.19
2023-04-27T11:14:58.591Z,96676.03
2023-04-27T11:17:31.532Z,96682.88
2023-04-27T11:19:59.579Z,96676.72
2023-04-27T11:22:27.579Z,96672.66
2023-04-27T11:24:55.413Z,96676.97
2023-04-27T11:27:25.174Z,96677.78
2023-04-27T11:29:52.941Z,96673.59
2023-04-27T11:32:21.562Z,96677.50
2023-04-27T11:34:56.127Z,96678.31
2023-04-27T11:37:26.525Z,96684.91
2023-04-27T11:39:57.365Z,96682.75
2023-04-27T11:42:28.457Z,96682.59
2023-04-27T11:44:57.930Z,96679.03
2023-04-27T11:47:27.797Z,96679.72
2023-04-27T11:49:58.574Z,96673.72
2023-04-27T11:52:29.920Z,96675.63
2023-04-27T11:54:58.185Z,96679.22
2023-04-27T11:57:27.450Z,96671.19
2023-04-27T11:59:56.202Z,96671.72
2023-04-27T12:02:24.483Z,96667.25
2023-04-27T12:04:52.729Z,96665.16
2023-04-27T12:07:22.352Z,96667.97
2023-04-27T12:09:50.201Z,96658.47
2023-04-27T12:12:18.372Z,96657.50
2023-04-27T12:14:46.868Z,96666.16
2023-04-27T12:17:14.701Z,96652.88
2023-04-27T12:19:42.415Z,96649.59
2023-04-27T12:22:10.647Z,96644.13
2023-04-27T12:24:39.760Z,96643.03
2023-04-27T12:27:08.305Z,96645.13
2023-04-27T12:29:36.832Z,96652.41
2023-04-27T12:32:04.732Z,96651.34
2023-04-27T12:34:32.878Z,96650.81
2023-04-27T12:37:00.970Z,96655.66
2023-04-27T12:39:28.724Z,96656.16
2023-04-27T12:41:58.240Z,96660.78
2023-04-27T12:44:26.980Z,96650.06
2023-04-27T12:46:54.810Z,96652.66
2023-04-27T12:49:22.900Z,96653.03
2023-04-27T12:51:51.792Z,96643.22
2023-04-27T12:54:19.787Z,96645.13
2023-04-27T12:56:47.623Z,96642.22
2023-04-27T12:59:17.078Z,96643.06
2023-04-27T13:01:45.661Z,96636.75
2023-04-27T13:04:20.135Z,96631.50
2023-04-27T13:06:49.719Z,96631.56
2023-04-27T13:09:17.651Z,96632.00
2023-04-27T13:11:45.393Z,96631.88
2023-04-27T13:14:13.859Z,96628.75
2023-04-27T13:16:43.580Z,96629.91
2023-04-27T13:19:11.356Z,96636.34
2023-04-27T13:21:39.203Z,96635.03
2023-04-27T13:24:08.048Z,96634.06
2023-04-27T13:26:36.006Z,96630.19
2023-04-27T13:29:04.717Z,96635.22
2023-04-27T13:31:33.314Z,96631.56
2023-04-27T13:34:04.652Z,96629.34
2023-04-27T13:36:32.429Z,96629.34
2023-04-27T13:39:00.345Z,96629.00
2023-04-27T13:41:28.370Z,96616.84
2023-04-27T13:43:56.158Z,96614.72
2023-04-27T13:46:24.265Z,96620.19
2023-04-27T13:48:52.080Z,96620.44
2023-04-27T13:51:21.456Z,96612.63
2023-04-27T13:53:49.175Z,96609.81
2023-04-27T13:56:16.886Z,96619.19
2023-04-27T13:58:44.672Z,96623.59
2023-04-27T14:01:12.482Z,96609.94
2023-04-27T14:03:43.208Z,96621.84
2023-04-27T14:06:11.259Z,96626.50
2023-04-27T14:08:41.463Z,96612.78
2023-04-27T14:11:09.215Z,96613.84
2023-04-27T14:13:36.902Z,96606.56
2023-04-27T14:16:04.902Z,96603.56
2023-04-27T14:18:33.355Z,96605.88
2023-04-27T14:21:01.191Z,96607.88
2023-04-27T14:23:28.964Z,96606.09
2023-04-27T14:25:58.131Z,96613.28
2023-04-27T14:28:26.081Z,96613.69
2023-04-27T14:30:53.887Z,96618.91
2023-04-27T14:33:21.625Z,96621.78
2023-04-27T14:35:49.327Z,96621.44
2023-04-27T14:38:17.083Z,96619.75
2023-04-27T14:40:44.961Z,96612.25
2023-04-27T14:43:14.242Z,96619.13
2023-04-27T14:45:52.447Z,96617.28
2023-04-27T14:48:21.968Z,96620.47
2023-04-27T14:50:50.077Z,96616.50
2023-04-27T14:53:17.868Z,96614.16
2023-04-27T14:55:46.650Z,96616.16
2023-04-27T14:58:15.815Z,96618.16
2023-04-27T15:00:43.707Z,96610.50
2023-04-27T15:03:11.804Z,96620.81
2023-04-27T15:05:39.860Z,96613.31
2023-04-27T15:08:07.539Z,96625.16
2023-04-27T15:10:35.269Z,96618.75
2023-04-27T15:13:03.350Z,96619.59
2023-04-27T15:15:32.527Z,96618.28
2023-04-27T15:18:00.546Z,96615.53
2023-04-27T15:20:28.554Z,96621.72
2023-04-27T15:22:56.725Z,96610.81
2023-04-27T15:25:24.457Z,96606.97
2023-04-27T15:27:52.250Z,96603.97
2023-04-27T15:30:19.983Z,96607.44
2023-04-27T15:32:49.549Z,96595.47
2023-04-27T15:35:17.616Z,96595.00
2023-04-27T15:37:45.492Z,96597.81
2023-04-27T15:40:13.636Z,96606.63
2023-04-27T15:42:41.579Z,96608.53
2023-04-27T15:45:10.880Z,96604.56
2023-04-27T15:47:38.703Z,96605.59
2023-04-27T15:50:09.329Z,96598.63
2023-04-27T15:52:37.058Z,96588.56
2023-04-27T15:55:05.449Z,96586.59
2023-04-27T15:57:33.294Z,96594.06
2023-04-27T16:00:01.240Z,96585.56
2023-04-27T16:02:29.146Z,96591.59
2023-04-27T16:04:57.181Z,96584.75
2023-04-27T16:07:26.470Z,96580.91
2023-04-27T16:09:54.321Z,96579.56
2023-04-27T16:12:22.112Z,96575.25
2023-04-27T16:14:51.844Z,96568.53
2023-04-27T16:17:19.707Z,96567.91
2023-04-27T16:19:47.447Z,96565.19
2023-04-27T16:22:15.300Z,96562.50
2023-04-27T16:24:44.544Z,96562.63
2023-04-27T16:27:12.507Z,96559.69
2023-04-27T16:29:40.696Z,96559.69
2023-04-27T16:32:08.661Z,96556.00
2023-04-27T16:34:37.220Z,96556.50
2023-04-27T16:37:05.136Z,96555.00
2023-04-27T16:39:33.154Z,96550.78
2023-04-27T16:42:02.740Z,96557.16
2023-04-27T16:44:30.909Z,96561.09
2023-04-27T16:46:58.801Z,96559.59
2023-04-27T16:49:27.009Z,96554.81
2023-04-27T16:51:56.245Z,96559.50
2023-04-27T16:54:24.098Z,96552.66
2023-04-27T16:56:53.232Z,96556.78
2023-04-27T16:59:24.153Z,96552.38
2023-04-27T17:01:52.438Z,96547.66
2023-04-27T17:04:20.799Z,96548.13
2023-04-27T17:06:49.088Z,96547.81
2023-04-27T17:09:17.580Z,96549.81
2023-04-27T17:11:46.004Z,96547.91
2023-04-27T17:14:14.215Z,96542.91
2023-04-27T17:16:43.722Z,96536.22
2023-04-27T17:19:13.414Z,96539.03
2023-04-27T17:21:41.852Z,96545.53
2023-04-27T17:24:10.710Z,96553.78
2023-04-27T17:26:39.119Z,96550.63
2023-04-27T17:29:07.392Z,96556.22
2023-04-27T17:31:36.871Z,96557.94
2023-04-27T17:34:06.571Z,96558.53
2023-04-27T17:36:34.781Z,96557.84
2023-04-27T17:39:03.363Z,96550.47
2023-04-27T17:41:32.589Z,96545.16
2023-04-27T17:44:00.984Z,96552.44
2023-04-27T17:46:28.832Z,96562.41
2023-04-27T17:48:56.632Z,96552.78
2023-04-27T17:51:25.857Z,96558.38
2023-04-27T17:53:53.608Z,96555.34
2023-04-27T17:56:21.333Z,96555.09
2023-04-27T17:58:49.108Z,96559.06
2023-04-27T18:01:17.103Z,96548.88
2023-04-27T18:03:44.940Z,96544.84
2023-04-27T18:06:12.772Z,96544.47
2023-04-27T18:08:41.956Z,96551.59
2023-04-27T18:11:09.716Z,96552.00
2023-04-27T18:13:38.191Z,96554.13
2023-04-27T18:16:06.699Z,96564.22
2023-04-27T18:18:34.461Z,96572.13
2023-04-27T18:21:02.203Z,96568.25
2023-04-27T18:23:29.986Z,96572.03
2023-04-27T18:26:00.853Z,96563.97
2023-04-27T18:28:28.595Z,96566.22
2023-04-27T18:30:56.527Z,96568.50
2023-04-27T18:33:24.310Z,96565.41
2023-04-27T18:35:52.219Z,96566.56
2023-04-27T18:38:20.126Z,96566.97
2023-04-27T18:40:48.393Z,96561.44
2023-04-27T18:43:17.442Z,96553.75
2023-04-27T18:45:45.290Z,96555.16
2023-04-27T18:48:13.099Z,96555.47
2023-04-27T18:50:40.856Z,96559.41
2023-04-27T18:53:08.640Z,96563.44
2023-04-27T18:55:36.394Z,96564.88
2023-04-27T18:58:04.210Z,96561.94
2023-04-27T19:00:33.797Z,96570.50
2023-04-27T19:03:01.693Z,96572.19
2023-04-27T19:05:30.214Z,96564.66
2023-04-27T19:07:58.050Z,96574.59
2023-04-27T19:10:25.802Z,96576.22
2023-04-27T19:12:54.051Z,96575.81
2023-04-27T19:15:21.990Z,96575.28
2023-04-27T19:18:02.171Z,96584.50
2023-04-27T19:20:37.514Z,96575.00
2023-04-27T19:23:05.607Z,96585.22
2023-04-27T19:25:33.473Z,96576.81
2023-04-27T19:28:01.283Z,96576.38
2023-04-27T19:30:29.070Z,96581.00
2023-04-27T19:32:58.244Z,96578.91
2023-04-27T19:35:27.330Z,96575.28
2023-04-27T19:37:55.086Z,96580.44
2023-04-27T19:40:22.907Z,96566.59
2023-04-27T19:42:50.694Z,96561.59
2023-04-27T19:45:18.923Z,96556.41
2023-04-27T19:47:48.618Z,96569.97
2023-04-27T19:50:18.025Z,96569.25
2023-04-27T19:52:45.713Z,96571.47
2023-04-27T19:55:13.668Z,96559.34
2023-04-27T19:57:41.466Z,96566.84
2023-04-27T20:00:11.524Z,96568.81
2023-04-27T20:02:42.259Z,96569.22
2023-04-27T20:05:10.691Z,96570.59
2023-04-27T20:07:40.071Z,96575.34
2023-04-27T20:10:08.637Z,96577.28
2023-04-27T20:12:54.644Z,96572.25
2023-04-27T20:15:24.506Z,96569.56
2023-04-27T20:17:52.389Z,96569.84
2023-04-27T20:20:20.698Z,96566.16
2023-04-27T20:22:49.872Z,96571.88
2023-04-27T20:25:19.529Z,96574.78
2023-04-27T20:27:47.376Z,96561.94
2023-04-27T20:30:15.253Z,96561.59
2023-04-27T20:32:42.998Z,96561.88
2023-04-27T20:35:11.231Z,96558.53
2023-04-27T20:37:40.070Z,96556.25
2023-04-27T20:40:14.278Z,96558.34
2023-04-27T20:42:42.621Z,96555.72
2023-04-27T20:45:11.578Z,96558.03
2023-04-27T20:47:39.350Z,96557.72
2023-04-27T20:50:09.054Z,96554.38
2023-04-27T20:52:37.000Z,96552.69
2023-04-27T20:55:05.177Z,96562.56
2023-04-27T20:57:34.342Z,96547.66
2023-04-27T21:00:02.145Z,96534.78
2023-04-27T21:02:29.970Z,96536.88
2023-04-27T21:04:57.981Z,96534.25
2023-04-27T21:07:26.367Z,96538.81
2023-04-27T21:09:54.323Z,96530.75
2023-04-27T21:12:23.353Z,96524.59
2023-04-27T21:14:52.448Z,96523.22
2023-04-27T21:17:20.161Z,96522.22
2023-04-27T21:19:47.948Z,96514.56
2023-04-27T21:22:15.701Z,96524.31
2023-04-27T21:24:43.465Z,96522.50
2023-04-27T21:27:11.539Z,96512.84
2023-04-27T21:29:39.286Z,96517.47
2023-04-27T21:32:08.456Z,96516.59
2023-04-27T21:34:36.235Z,96516.88
2023-04-27T21:37:04.038Z,96517.72
2023-04-27T21:39:31.777Z,96508.38
2023-04-27T21:41:59.481Z,96513.09
2023-04-27T21:44:27.270Z,96506.94
2023-04-27T21:46:55.013Z,96495.78
2023-04-27T21:49:24.187Z,96493.41
2023-04-27T21:51:51.848Z,96490.75
2023-04-27T21:54:19.970Z,96492.56
2023-04-27T21:56:47.697Z,96487.66
2023-04-27T21:59:15.438Z,96488.75
2023-04-27T22:01:43.920Z,96485.78
2023-04-27T22:04:11.993Z,96482.56
2023-04-27T22:06:41.251Z,96479.19
2023-04-27T22:09:09.127Z,96482.50
2023-04-27T22:11:36.823Z,96477.22
2023-04-27T22:14:04.649Z,96484.56
2023-04-27T22:16:32.519Z,96484.09
2023-04-27T22:19:01.057Z,96489.53
2023-04-27T22:21:29.393Z,96482.94
2023-04-27T22:23:58.542Z,96490.19
2023-04-27T22:26:26.403Z,96493.06
2023-04-27T22:28:54.175Z,96492.34
2023-04-27T22:31:22.175Z,96487.31
2023-04-27T22:33:49.961Z,96489.25
2023-04-27T22:36:17.815Z,96491.44
2023-04-27T22:38:45.562Z,96492.28
2023-04-27T22:41:14.638Z,96496.00
2023-04-27T22:43:42.412Z,96489.19
2023-04-27T22:46:10.211Z,96497.59
2023-04-27T22:48:38.086Z,96500.38
2023-04-27T22:51:09.173Z,96497.97
2023-04-27T22:53:37.345Z,96492.94
2023-04-27T22:56:06.107Z,96492.94
2023-04-27T22:58:36.090Z,96494.88
2023-04-27T23:01:03.982Z,96486.47
2023-04-27T23:03:32.121Z,96491.50
2023-04-27T23:06:00.852Z,96487.66
2023-04-27T23:08:28.895Z,96470.84
2023-04-27T23:10:56.852Z,96467.94
2023-04-27T23:13:26.729Z,96476.59
2023-04-27T23:15:55.996Z,96481.88
2023-04-27T23:18:23.766Z,96477.09
2023-04-27T23:20:54.605Z,96478.53
2023-04-27T23:23:22.707Z,96474.91
2023-04-27T23:25:50.600Z,96467.13
2023-04-27T23:28:18.501Z,96465.31
2023-04-27T23:30:53.838Z,96454.75
2023-04-27T23:33:24.248Z,96450.41
2023-04-27T23:35:53.076Z,96454.63
2023-04-27T23:38:21.744Z,96438.44
2023-04-27T23:40:50.518Z,96445.81
2023-04-27T23:43:18.509Z,96447.38
2023-04-27T23:45:50.628Z,96440.75
2023-04-27T23:48:18.558Z,96440.50
2023-04-27T23:50:47.738Z,96443.53
2023-04-27T23:53:15.675Z,96452.06
2023-04-27T23:55:43.682Z,96432.94
2023-04-27T23:58:11.401Z,96420.81
